createdAt,value
2018-03-18T00:01:55.996Z,101009.14
2018-03-18T00:04:24.361Z,101011.90
2018-03-18T00:06:52.734Z,101033.56
2018-03-18T00:09:21.116Z,101032.23
2018-03-18T00:11:49.497Z,101006.69
2018-03-18T00:14:17.864Z,101019.75
2018-03-18T00:16:46.242Z,101013.32
2018-03-18T00:19:14.637Z,101007.22
2018-03-18T00:21:43.008Z,101009.16
2018-03-18T00:24:11.545Z,101024.94
2018-03-18T00:26:40.018Z,101023.73
2018-03-18T00:29:08.381Z,101015.20
2018-03-18T00:31:36.744Z,101041.79
2018-03-18T00:34:05.104Z,101018.22
2018-03-18T00:36:33.504Z,101024.08
2018-03-18T00:39:01.859Z,101018.38
2018-03-18T00:41:30.953Z,101030.60
2018-03-18T00:43:59.352Z,101033.17
2018-03-18T00:46:27.711Z,101019.01
2018-03-18T00:48:56.150Z,101040.58
2018-03-18T00:51:42.271Z,101029.91
2018-03-18T00:54:11.076Z,101022.70
2018-03-18T00:56:39.400Z,101033.23
2018-03-18T00:59:07.772Z,101026.80
2018-03-18T01:01:36.147Z,101029.41
2018-03-18T01:04:04.932Z,101027.33
2018-03-18T01:06:33.307Z,101032.58
2018-03-18T01:09:01.664Z,101019.08
2018-03-18T01:11:30.044Z,101026.45
2018-03-18T01:13:58.420Z,101024.39
2018-03-18T01:16:26.796Z,101051.22
2018-03-18T01:18:55.180Z,101066.80
2018-03-18T01:21:23.540Z,101029.37
2018-03-18T01:23:51.966Z,101032.80
2018-03-18T01:26:20.328Z,101029.67
2018-03-18T01:28:48.688Z,101028.33
2018-03-18T01:31:17.113Z,101021.02
2018-03-18T01:33:45.491Z,101034.30
2018-03-18T01:36:14.280Z,101053.20
2018-03-18T01:38:42.643Z,101018.59
2018-03-18T01:41:11.036Z,101029.63
2018-03-18T01:43:39.810Z,101016.54
2018-03-18T01:46:08.175Z,101037.64
2018-03-18T01:48:36.529Z,101054.45
2018-03-18T01:51:04.929Z,101015.91
2018-03-18T01:53:33.338Z,101016.88
2018-03-18T01:56:01.707Z,101024.41
2018-03-18T01:58:31.678Z,101026.46
2018-03-18T02:01:00.071Z,101030.05
2018-03-18T02:03:28.435Z,101028.02
2018-03-18T02:05:56.803Z,101022.30
2018-03-18T02:08:25.191Z,101028.26
2018-03-18T02:10:53.591Z,101034.66
2018-03-18T02:13:21.988Z,101028.95
2018-03-18T02:15:50.361Z,101052.83
2018-03-18T02:18:18.744Z,101033.81
2018-03-18T02:20:47.145Z,101021.72
2018-03-18T02:23:16.027Z,101031.26
2018-03-18T02:25:44.421Z,101029.29
2018-03-18T02:28:12.810Z,101030.16
2018-03-18T02:30:41.597Z,101042.52
2018-03-18T02:33:09.958Z,101020.58
2018-03-18T02:35:38.348Z,101018.77
2018-03-18T02:38:07.145Z,101035.47
2018-03-18T02:40:35.856Z,101022.75
2018-03-18T02:43:04.253Z,101033.44
2018-03-18T02:45:32.635Z,101037.61
2018-03-18T02:48:01.019Z,101029.85
2018-03-18T02:50:29.398Z,101023.41
2018-03-18T02:52:57.816Z,101035.61
2018-03-18T02:55:26.608Z,101069.92
2018-03-18T02:57:55.394Z,101026.08
2018-03-18T03:00:24.200Z,101026.48
2018-03-18T03:02:53.125Z,101034.56
2018-03-18T03:05:21.558Z,101046.73
2018-03-18T03:07:50.427Z,101037.17
2018-03-18T03:10:18.821Z,101040.24
2018-03-18T03:12:47.188Z,101041.75
2018-03-18T03:15:15.572Z,101037.66
2018-03-18T03:17:43.952Z,101044.00
2018-03-18T03:20:12.344Z,101037.22
2018-03-18T03:22:40.801Z,101044.52
2018-03-18T03:25:09.200Z,101042.62
2018-03-18T03:27:37.985Z,101035.64
2018-03-18T03:30:06.866Z,101045.35
2018-03-18T03:32:35.258Z,101058.73
2018-03-18T03:35:04.061Z,101050.97
2018-03-18T03:37:32.840Z,101070.06
2018-03-18T03:40:01.629Z,101052.59
2018-03-18T03:42:30.036Z,101062.83
2018-03-18T03:44:58.416Z,101051.13
2018-03-18T03:47:26.828Z,101049.41
2018-03-18T03:49:55.228Z,101044.73
2018-03-18T03:52:23.603Z,101054.42
2018-03-18T03:54:52.730Z,101070.91
2018-03-18T03:57:21.535Z,101049.69
2018-03-18T03:59:50.290Z,101048.97
2018-03-18T04:02:18.869Z,101054.28
2018-03-18T04:04:47.645Z,101072.81
2018-03-18T04:07:16.042Z,101067.42
2018-03-18T04:09:44.823Z,101066.41
2018-03-18T04:12:13.203Z,101043.48
2018-03-18T04:14:42.118Z,101060.20
2018-03-18T04:17:10.563Z,101062.69
2018-03-18T04:19:39.055Z,101067.23
2018-03-18T04:22:07.567Z,101059.64
2018-03-18T04:24:35.952Z,101063.10
2018-03-18T04:27:04.399Z,101058.98
2018-03-18T04:29:32.781Z,101054.94
2018-03-18T04:32:01.573Z,101061.08
2018-03-18T04:34:30.368Z,101059.94
2018-03-18T04:36:59.177Z,101055.30
2018-03-18T04:39:27.552Z,101071.84
2018-03-18T04:41:55.971Z,101062.71
2018-03-18T04:44:24.367Z,101062.52
2018-03-18T04:46:52.797Z,101059.88
2018-03-18T04:49:21.166Z,101073.97
2018-03-18T04:51:49.589Z,101064.91
2018-03-18T04:54:17.997Z,101080.81
2018-03-18T04:56:46.479Z,101080.58
2018-03-18T04:59:14.909Z,101064.50
2018-03-18T05:01:43.681Z,101083.34
2018-03-18T05:04:12.084Z,101073.64
2018-03-18T05:06:40.479Z,101101.20
2018-03-18T05:09:09.056Z,101096.03
2018-03-18T05:11:37.446Z,101082.70
2018-03-18T05:14:05.845Z,101079.95
2018-03-18T05:16:34.238Z,101091.42
2018-03-18T05:19:03.020Z,101082.80
2018-03-18T05:21:31.399Z,101094.87
2018-03-18T05:24:00.183Z,101097.98
2018-03-18T05:26:28.574Z,101092.70
2018-03-18T05:28:57.354Z,101095.45
2018-03-18T05:31:26.151Z,101093.91
2018-03-18T05:33:54.539Z,101122.34
2018-03-18T05:36:22.926Z,101102.69
2018-03-18T05:38:51.312Z,101098.30
2018-03-18T05:41:19.708Z,101110.67
2018-03-18T05:43:48.076Z,101093.07
2018-03-18T05:46:16.452Z,101110.23
2018-03-18T05:48:45.208Z,101116.82
2018-03-18T05:51:13.580Z,101105.03
2018-03-18T05:53:41.951Z,101119.23
2018-03-18T05:56:10.336Z,101116.27
2018-03-18T05:58:38.693Z,101100.31
2018-03-18T06:01:07.072Z,101103.89
2018-03-18T06:03:35.428Z,101106.91
2018-03-18T06:06:03.780Z,101149.66
2018-03-18T06:08:32.540Z,101120.98
2018-03-18T06:11:00.893Z,101113.03
2018-03-18T06:13:29.250Z,101120.58
2018-03-18T06:15:57.609Z,101109.43
2018-03-18T06:18:26.356Z,101108.02
2018-03-18T06:20:54.758Z,101123.14
2018-03-18T06:23:23.119Z,101109.20
2018-03-18T06:25:51.492Z,101121.16
2018-03-18T06:28:19.859Z,101149.30
2018-03-18T06:30:48.228Z,101122.93
2018-03-18T06:33:17.185Z,101135.97
2018-03-18T06:35:45.944Z,101137.97
2018-03-18T06:38:14.292Z,101196.64
2018-03-18T06:40:42.684Z,101143.21
2018-03-18T06:43:11.043Z,101150.33
2018-03-18T06:45:39.435Z,101128.87
2018-03-18T06:48:07.784Z,101127.05
2018-03-18T06:50:36.154Z,101137.53
2018-03-18T06:53:04.912Z,101130.82
2018-03-18T06:55:33.259Z,101148.66
2018-03-18T06:58:01.608Z,101165.23
2018-03-18T07:00:30.032Z,101163.57
2018-03-18T07:02:59.201Z,101163.42
2018-03-18T07:05:27.582Z,101163.13
2018-03-18T07:07:55.923Z,101164.14
2018-03-18T07:10:24.676Z,101152.50
2018-03-18T07:12:53.026Z,101184.41
2018-03-18T07:15:21.492Z,101151.48
2018-03-18T07:17:49.849Z,101167.37
2018-03-18T07:20:18.621Z,101159.32
2018-03-18T07:22:47.387Z,101152.27
2018-03-18T07:25:15.759Z,101177.13
2018-03-18T07:27:44.112Z,101168.50
2018-03-18T07:30:12.643Z,101172.18
2018-03-18T07:32:41.016Z,101169.30
2018-03-18T07:35:09.379Z,101167.51
2018-03-18T07:37:37.729Z,101162.83
2018-03-18T07:40:06.112Z,101169.55
2018-03-18T07:42:34.472Z,101200.28
2018-03-18T07:45:02.823Z,101158.94
2018-03-18T07:47:32.375Z,101168.77
2018-03-18T07:50:00.789Z,101182.84
2018-03-18T07:52:29.153Z,101171.54
2018-03-18T07:54:57.504Z,101171.01
2018-03-18T07:57:25.863Z,101177.73
2018-03-18T07:59:54.600Z,101180.46
2018-03-18T08:02:22.951Z,101164.69
2018-03-18T08:04:51.304Z,101198.17
2018-03-18T08:07:20.168Z,101202.34
2018-03-18T08:09:48.512Z,101178.36
2018-03-18T08:12:16.870Z,101214.94
2018-03-18T08:14:45.232Z,101189.06
2018-03-18T08:17:13.584Z,101193.50
2018-03-18T08:19:42.355Z,101181.97
2018-03-18T08:22:10.712Z,101183.84
2018-03-18T08:24:39.058Z,101182.69
2018-03-18T08:27:07.433Z,101186.95
2018-03-18T08:29:35.783Z,101171.14
2018-03-18T08:32:04.140Z,101194.09
2018-03-18T08:34:32.590Z,101205.16
2018-03-18T08:37:00.939Z,101182.91
2018-03-18T08:39:29.686Z,101191.27
2018-03-18T08:41:58.055Z,101206.36
2018-03-18T08:44:26.400Z,101181.45
2018-03-18T08:46:54.759Z,101183.16
2018-03-18T08:49:23.504Z,101228.22
2018-03-18T08:51:51.876Z,101190.85
2018-03-18T08:54:20.252Z,101180.73
2018-03-18T08:56:48.612Z,101179.63
2018-03-18T08:59:16.997Z,101177.34
2018-03-18T09:01:45.359Z,101176.52
2018-03-18T09:04:14.160Z,101182.77
2018-03-18T09:06:42.564Z,101175.58
2018-03-18T09:09:10.932Z,101191.70
2018-03-18T09:11:39.285Z,101160.02
2018-03-18T09:14:07.628Z,101190.52
2018-03-18T09:16:35.981Z,101174.61
2018-03-18T09:19:04.345Z,101170.55
2018-03-18T09:21:33.648Z,101191.70
2018-03-18T09:24:02.005Z,101186.65
2018-03-18T09:26:30.368Z,101201.80
2018-03-18T09:28:59.131Z,101175.27
2018-03-18T09:31:27.484Z,101151.55
2018-03-18T09:33:55.867Z,101169.61
2018-03-18T09:36:24.235Z,101153.88
2018-03-18T09:38:52.701Z,101177.06
2018-03-18T09:41:21.115Z,101141.22
2018-03-18T09:43:49.456Z,101129.13
2018-03-18T09:46:17.860Z,101161.07
2018-03-18T09:48:46.236Z,101164.97
2018-03-18T09:51:14.591Z,101146.16
2018-03-18T09:53:42.939Z,101143.80
2018-03-18T09:56:11.749Z,101135.23
2018-03-18T09:58:40.088Z,101142.28
2018-03-18T10:01:08.518Z,101134.36
2018-03-18T10:03:36.862Z,101142.89
2018-03-18T10:06:05.608Z,101133.80
2018-03-18T10:08:33.965Z,101141.86
2018-03-18T10:11:02.323Z,101172.05
2018-03-18T10:13:30.726Z,101159.34
2018-03-18T10:15:59.104Z,101126.75
2018-03-18T10:18:27.452Z,101139.69
2018-03-18T10:20:56.205Z,101135.72
2018-03-18T10:23:24.557Z,101125.05
2018-03-18T10:25:52.920Z,101198.66
2018-03-18T10:28:21.267Z,101170.73
2018-03-18T10:30:50.040Z,101197.23
2018-03-18T10:33:18.787Z,101140.59
2018-03-18T10:35:47.164Z,101162.20
2018-03-18T10:38:15.511Z,101162.52
2018-03-18T10:40:43.869Z,101137.51
2018-03-18T10:43:12.239Z,101133.89
2018-03-18T10:45:40.605Z,101133.27
2018-03-18T10:48:08.965Z,101169.77
2018-03-18T10:50:37.335Z,101178.53
2018-03-18T10:53:05.692Z,101140.84
2018-03-18T10:55:34.052Z,101143.56
2018-03-18T10:58:02.791Z,101143.70
2018-03-18T11:00:36.610Z,101123.67
2018-03-18T11:03:04.960Z,101143.71
2018-03-18T11:05:33.315Z,101124.83
2018-03-18T11:08:01.728Z,101143.88
2018-03-18T11:10:30.152Z,101136.42
2018-03-18T11:12:59.016Z,101129.09
2018-03-18T11:15:27.413Z,101159.66
2018-03-18T11:17:55.756Z,101125.16
2018-03-18T11:20:24.206Z,101124.88
2018-03-18T11:22:52.596Z,101116.14
2018-03-18T11:25:21.014Z,101123.23
2018-03-18T11:27:49.375Z,101123.61
2018-03-18T11:30:17.744Z,101116.73
2018-03-18T11:32:46.095Z,101105.78
2018-03-18T11:35:14.493Z,101095.84
2018-03-18T11:40:17.615Z,101116.89
2018-03-18T11:42:45.996Z,101100.12
2018-03-18T11:45:14.364Z,101102.51
2018-03-18T11:47:42.717Z,101126.51
2018-03-18T11:50:11.132Z,101128.56
2018-03-18T11:52:39.508Z,101113.97
2018-03-18T11:55:07.879Z,101116.69
2018-03-18T11:57:36.271Z,101115.91
2018-03-18T12:00:04.657Z,101095.91
2018-03-18T12:02:33.004Z,101099.38
2018-03-18T12:05:01.360Z,101102.92
2018-03-18T12:07:29.739Z,101102.55
2018-03-18T12:09:58.087Z,101099.30
2018-03-18T12:12:26.445Z,101094.72
2018-03-18T12:14:54.787Z,101105.36
2018-03-18T12:17:23.149Z,101108.89
2018-03-18T12:19:51.504Z,101098.53
2018-03-18T12:22:19.907Z,101095.06
2018-03-18T12:24:48.247Z,101117.31
2018-03-18T12:27:16.608Z,101129.09
2018-03-18T12:29:45.004Z,101074.96
2018-03-18T12:32:13.368Z,101108.02
2018-03-18T12:34:41.716Z,101098.48
2018-03-18T12:37:10.084Z,101087.69
2018-03-18T12:39:56.216Z,101084.03
2018-03-18T12:42:42.256Z,101078.73
2018-03-18T12:45:11.080Z,101067.92
2018-03-18T12:47:39.580Z,101066.78
2018-03-18T12:50:07.934Z,101061.06
2018-03-18T12:52:36.292Z,101080.27
2018-03-18T12:55:04.643Z,101084.03
2018-03-18T12:57:33.004Z,101078.97
2018-03-18T13:00:01.365Z,101087.91
2018-03-18T13:02:29.719Z,101078.99
2018-03-18T13:04:58.083Z,101083.86
2018-03-18T13:07:26.839Z,101085.69
2018-03-18T13:09:55.202Z,101066.59
2018-03-18T13:12:23.567Z,101078.22
2018-03-18T13:14:51.924Z,101075.17
2018-03-18T13:17:20.343Z,101067.17
2018-03-18T13:19:48.731Z,101050.05
2018-03-18T13:22:17.144Z,101038.13
2018-03-18T13:24:45.564Z,101032.72
2018-03-18T13:27:14.271Z,101043.73
2018-03-18T13:29:42.648Z,101047.55
2018-03-18T13:32:11.013Z,101035.09
2018-03-18T13:34:39.369Z,101041.43
2018-03-18T13:37:07.780Z,101045.84
2018-03-18T13:39:36.133Z,101075.40
2018-03-18T13:42:04.526Z,101049.95
2018-03-18T13:44:32.872Z,101026.22
2018-03-18T13:47:01.231Z,101050.16
2018-03-18T13:49:29.984Z,101036.59
2018-03-18T13:51:58.340Z,101043.39
2018-03-18T13:54:26.703Z,101034.64
2018-03-18T13:56:55.059Z,101038.72
2018-03-18T13:59:23.812Z,101040.06
2018-03-18T14:01:52.169Z,101030.59
2018-03-18T14:04:20.531Z,101028.72
2018-03-18T14:06:48.912Z,101032.09
2018-03-18T14:09:17.264Z,101029.22
2018-03-18T14:11:46.031Z,101024.58
2018-03-18T14:14:14.377Z,101021.67
2018-03-18T14:16:42.736Z,101032.56
2018-03-18T14:19:11.100Z,101019.66
2018-03-18T14:21:39.459Z,101028.12
2018-03-18T14:24:08.203Z,101014.00
2018-03-18T14:26:36.564Z,101012.83
2018-03-18T15:18:06.823Z,100995.72
2018-03-18T15:20:35.175Z,100992.14
2018-03-18T15:23:03.514Z,101007.25
2018-03-18T15:25:32.274Z,101034.82
2018-03-18T15:28:00.623Z,100992.25
2018-03-18T15:30:28.992Z,100993.82
2018-03-18T15:32:57.345Z,100992.93
2018-03-18T15:35:25.788Z,100993.27
2018-03-18T15:37:54.140Z,100990.14
2018-03-18T15:40:22.533Z,100984.02
2018-03-18T15:42:50.907Z,100995.48
2018-03-18T15:45:19.296Z,100984.36
2018-03-18T15:47:47.710Z,100985.18
2018-03-18T15:50:16.024Z,101004.56
2018-03-18T15:52:44.377Z,100987.14
2018-03-18T15:55:12.784Z,100991.57
2018-03-18T15:57:41.215Z,100983.17
2018-03-18T16:00:09.964Z,100989.50
2018-03-18T16:02:38.342Z,100994.53
2018-03-18T16:05:06.798Z,100994.33
2018-03-18T16:07:35.207Z,100994.86
2018-03-18T16:10:03.579Z,100979.37
2018-03-18T16:12:32.044Z,100955.09
2018-03-18T16:15:00.558Z,100975.26
2018-03-18T16:17:29.057Z,100984.95
2018-03-18T16:19:57.569Z,100976.59
2018-03-18T16:22:26.081Z,100994.47
2018-03-18T16:24:54.529Z,100984.02
2018-03-18T16:27:23.032Z,100983.05
2018-03-18T16:30:09.246Z,100993.33
2018-03-18T16:32:37.780Z,100974.66
2018-03-18T16:35:06.269Z,100973.91
2018-03-18T16:37:34.720Z,100997.39
2018-03-18T16:40:03.629Z,100983.27
2018-03-18T16:42:32.148Z,100998.86
2018-03-18T16:45:00.652Z,100999.84
2018-03-18T16:47:29.129Z,101002.98
2018-03-18T16:52:22.703Z,101016.67
2018-03-18T16:55:05.438Z,100996.03
2018-03-18T16:57:35.586Z,100992.22
2018-03-18T17:00:16.397Z,100994.61
2018-03-18T17:02:45.260Z,100994.06
2018-03-18T17:05:43.675Z,101002.82
2018-03-18T17:08:24.277Z,101018.37
2018-03-18T17:11:11.606Z,101013.88
2018-03-18T17:14:00.531Z,101009.32
2018-03-18T17:16:36.587Z,101015.80
2018-03-18T17:19:20.632Z,101021.98
2018-03-18T17:25:18.488Z,101043.02
2018-03-18T17:27:47.985Z,101043.23
2018-03-18T17:30:16.518Z,101044.18
2018-03-18T17:32:45.939Z,101043.17
2018-03-18T17:35:14.408Z,101047.26
2018-03-18T17:37:43.153Z,101053.87
2018-03-18T17:40:12.191Z,101070.83
2018-03-18T17:42:40.945Z,101070.78
2018-03-18T17:45:27.632Z,101060.97
2018-03-18T17:48:13.616Z,101064.75
2018-03-18T17:51:00.464Z,101061.88
2018-03-18T17:53:46.662Z,101060.22
2018-03-18T17:56:33.696Z,101065.52
2018-03-18T18:01:35.220Z,101077.25
2018-03-18T18:04:04.276Z,101085.99
2018-03-18T18:06:32.844Z,101074.89
2018-03-18T18:09:01.886Z,101073.23
2018-03-18T18:11:31.011Z,101057.02
2018-03-18T18:14:00.000Z,101063.57
2018-03-18T18:16:29.827Z,101066.75
2018-03-18T18:18:58.584Z,101083.81
2018-03-18T18:21:27.749Z,101063.64
2018-03-18T18:24:04.980Z,101084.02
2018-03-18T18:26:33.820Z,101086.59
2018-03-18T18:31:36.146Z,101077.75
2018-03-18T18:34:05.170Z,101081.70
2018-03-18T18:36:34.672Z,101093.35
2018-03-18T18:39:03.265Z,101090.46
2018-03-18T18:41:32.160Z,101102.95
2018-03-18T18:44:01.055Z,101098.44
2018-03-18T18:46:29.794Z,101095.58
2018-03-18T18:48:58.665Z,101110.03
2018-03-18T18:51:27.188Z,101109.91
2018-03-18T18:53:55.726Z,101112.61
2018-03-18T18:56:24.517Z,101113.37
2018-03-18T18:58:53.444Z,101107.25
2018-03-18T19:01:22.692Z,101110.38
2018-03-18T19:03:51.287Z,101116.20
2018-03-18T19:06:20.409Z,101126.28
2018-03-18T19:08:49.561Z,101119.57
2018-03-18T19:11:18.386Z,101115.72
2018-03-18T19:13:47.122Z,101120.09
2018-03-18T19:16:15.803Z,101127.19
2018-03-18T19:18:45.273Z,101129.96
2018-03-18T19:21:13.838Z,101130.25
2018-03-18T19:23:42.629Z,101126.64
2018-03-18T19:26:11.730Z,101134.66
2018-03-18T19:28:40.664Z,101132.37
2018-03-18T19:31:09.290Z,101130.30
2018-03-18T19:33:38.315Z,101137.14
2018-03-18T19:36:06.952Z,101138.06
2018-03-18T19:38:35.477Z,101138.37
2018-03-18T19:41:04.576Z,101138.91
2018-03-18T19:43:33.398Z,101146.61
2018-03-18T19:46:02.762Z,101137.98
2018-03-18T19:48:31.348Z,101147.73
2018-03-18T19:51:00.153Z,101148.36
2018-03-18T19:53:28.592Z,101147.34
2018-03-18T19:55:57.328Z,101148.58
2018-03-18T19:58:25.970Z,101150.09
2018-03-18T20:00:54.806Z,101142.77
2018-03-18T20:03:23.593Z,101148.89
2018-03-18T20:05:52.373Z,101158.91
2018-03-18T20:08:21.163Z,101155.78
2018-03-18T20:10:50.015Z,101162.69
2018-03-18T20:13:27.270Z,101151.00
2018-03-18T20:15:56.084Z,101155.87
2018-03-18T20:18:24.857Z,101141.48
2018-03-18T20:20:57.228Z,101144.27
2018-03-18T20:23:26.640Z,101144.47
2018-03-18T20:29:27.743Z,101154.84
2018-03-18T20:31:56.313Z,101149.91
2018-03-18T20:34:24.973Z,101150.27
2018-03-18T20:36:53.901Z,101157.22
2018-03-18T20:39:23.596Z,101147.81
2018-03-18T20:41:53.357Z,101152.48
2018-03-18T20:44:22.751Z,101151.14
2018-03-18T20:46:53.293Z,101159.34
2018-03-18T20:49:22.588Z,101164.34
2018-03-18T20:51:51.354Z,101148.63
2018-03-18T20:54:22.223Z,101165.05
2018-03-18T20:56:50.728Z,101164.11
2018-03-18T20:59:21.175Z,101148.75
2018-03-18T21:01:51.264Z,101151.00
2018-03-18T21:04:20.690Z,101154.69
2018-03-18T21:06:51.994Z,101147.73
2018-03-18T21:09:21.112Z,101163.68
2018-03-18T21:11:50.526Z,101150.13
2018-03-18T21:14:19.263Z,101148.03
2018-03-18T21:16:48.044Z,101149.98
2018-03-18T21:19:16.544Z,101146.75
2018-03-18T21:21:45.094Z,101152.03
2018-03-18T21:24:13.833Z,101148.59
2018-03-18T21:26:42.651Z,101153.56
2018-03-18T21:29:11.417Z,101144.34
2018-03-18T21:31:40.653Z,101150.57
2018-03-18T21:34:09.481Z,101146.51
2018-03-18T21:36:37.954Z,101146.47
2018-03-18T21:39:06.476Z,101151.64
2018-03-18T21:41:36.036Z,101155.14
2018-03-18T21:44:04.683Z,101149.43
2018-03-18T21:46:34.125Z,101145.06
2018-03-18T21:49:02.961Z,101145.05
2018-03-18T21:51:31.824Z,101153.78
2018-03-18T21:54:00.590Z,101149.50
2018-03-18T21:56:29.209Z,101144.70
2018-03-18T21:58:58.341Z,101147.34
2018-03-18T22:01:27.244Z,101152.94
2018-03-18T22:03:56.545Z,101150.32
2018-03-18T22:06:25.986Z,101168.66
2018-03-18T22:08:55.587Z,101158.27
2018-03-18T22:11:24.567Z,101141.30
2018-03-18T22:13:53.276Z,101146.78
2018-03-18T22:16:22.448Z,101142.23
2018-03-18T22:18:51.309Z,101150.06
2018-03-18T22:21:19.908Z,101139.44
2018-03-18T22:23:49.546Z,101159.05
2018-03-18T22:26:18.839Z,101144.02
2018-03-18T22:28:47.860Z,101139.70
2018-03-18T22:31:16.778Z,101154.02
2018-03-18T22:33:46.205Z,101147.84
2018-03-18T22:36:15.754Z,101133.32
2018-03-18T22:38:44.606Z,101141.00
2018-03-18T22:41:13.626Z,101135.73
2018-03-18T22:43:42.339Z,101143.37
2018-03-18T22:46:11.507Z,101133.31
2018-03-18T22:48:41.495Z,101132.20
2018-03-18T22:51:11.779Z,101132.35
2018-03-18T22:53:41.016Z,101135.55
2018-03-18T22:56:09.959Z,101131.53
2018-03-18T22:58:38.862Z,101134.28
2018-03-18T23:01:07.837Z,101138.33
2018-03-18T23:03:37.456Z,101127.75
2018-03-18T23:06:06.365Z,101132.53
2018-03-18T23:08:35.205Z,101131.12
2018-03-18T23:11:04.719Z,101136.23
2018-03-18T23:13:33.593Z,101133.65
2018-03-18T23:16:02.364Z,101132.92
2018-03-18T23:18:31.149Z,101129.16
2018-03-18T23:21:00.552Z,101134.84
2018-03-18T23:23:29.398Z,101120.38
2018-03-18T23:25:57.958Z,101119.09
2018-03-18T23:28:27.289Z,101129.86
2018-03-18T23:30:57.287Z,101126.72
2018-03-18T23:33:26.099Z,101138.78
2018-03-18T23:35:54.816Z,101123.05
2018-03-18T23:38:23.932Z,101112.45
2018-03-18T23:40:52.726Z,101115.91
2018-03-18T23:43:21.467Z,101115.45
2018-03-18T23:45:51.384Z,101105.44
2018-03-18T23:48:20.013Z,101103.14
2018-03-18T23:50:49.219Z,101104.88
2018-03-18T23:53:18.242Z,101101.27
2018-03-18T23:55:47.263Z,101108.16
2018-03-18T23:58:16.063Z,101114.27
